Byron, MI

11:58 PM EDT on October 25, 2014 (GMT -0400)
TechTrans - Braden Road | Change Station
CLOSE
Current Station
Personal Weather Station
Location: Byron, MI
Elevation: 896 ft
Nearby Weather Stations

Elev 896 ft 42.79 °N, 84.08 °W | Updated 32 days ago

Clear
Clear
46 °F
Feels Like 46 °F
N
10
Wind Variable Wind from WNW
Gusts 13 mph

Today
High -- | Low -- °F
--% Chance of Precip.
Yesterday
High -- | Low -- °F
Precip. -- in
8:01 AM 6:38 PM
Waxing Crescent, 5% visible
Pressure 29.83 in
Visibility 10.0 miles
Clouds Clear
Dew Point 37 °F
Humidity 71%
Rainfall 2.14 in
Snow Depth Not available.
UV 0 out of 12
Pollen 1.60 out of 12
Air Quality Not available.
Flu Activity Sporadic
METAR KOZW 260334Z AUTO 28009G16KT 10SM CLR 11/M01 A2983 RMK AO2 T01101006

More Conditions Fewer Conditions

Pressure 29.83 in
Visibility 10.0 miles
Clouds Clear
Dew Point 37 °F
Humidity 71%
Rainfall 2.14 in
Snow Depth Not available.
UV 0 out of 12
Pollen 1.60 out of 12
Air Quality Not available.
Flu Activity Sporadic
METAR KOZW 260334Z AUTO 28009G16KT 10SM CLR 11/M01 A2983 RMK AO2 T01101006

More Conditions Fewer Conditions

10-Day Weather Forecast

Almanac

Astronomy

Oct. 25, 2014 Rise Set
Actual Time 8:01 AM EDT 6:38 PM EDT
Civil Twilight 7:32 AM EDT 7:07 PM EDT
Nautical Twilight 6:59 AM EDT 7:40 PM EDT
Astronomical Twilight 6:26 AM EDT 8:13 PM EDT
Moon 9:41 AM EDT (10/25) 7:58 PM EDT (10/25)
Length of Visible Light 11h 34m
Length of Day
10h 36m
Tomorrow will be 2m 42s shorter.
Waxing Crescent, 5% of the Moon is Illuminated
Today
Waxing Crescent
Oct 30
First Quarter
Nov 6
Full
Nov 14
Last Quarter
Nov 22
New

Today's Extremes

State Highs State Lows

Community

WunderPhotos

Upload Photos

1,765,095 photos uploaded!

Nearby

Air Quality

  Air Quality AQ Index Pollutant
Yesterday Good
OZONE
Saturday Good
PM2.5
Sunday Good
PM2.5
Monday Moderate
PM2.5

Snow Depth

Station Depth Elevation
No new snow has been reported.

Earthquake Activity

City Distance Mag. Time & Date
No recent earthquake activity has been reported nearby.
Minimum magnitude displayed is 2.5.

Coastal Water Temperatures

Place Temperature
No Stations Reporting

Nearby Weather Stations